PWSweather.com
Personal Weather Stations
Station Observations
PENICUIKWS
PenicuikGB

PenicuikGB

Lat: 55.830932, Lon: -3.224533000000065

Elevation: 166

Station Type: Fine Offset

http://weather.penicuik.org

High Low Average
Temperature 62.2°F16.8°C 45.5°F7.5°C 55.0°F12.8°C
Dew Point 54.7°F12.6°C 42.3°F5.7°C 49.8°F9.9°C
Winds 6.5 mph 10.5 kmh 0.3 mph 0.5 kmh 3.0 mph SW4.8 kmh SW
Wind Gusts 13.0 mph20.9 kmh 0.7 mph1.1 kmh 5.0 mph8.0 kmh
Humidity 90% 67% 83%
Pressure 30.15 in1021.0 mb 29.94 in1013.9 mb -
Precipitation 0.04 in1.0 mm - -
Hour Temp Dew Point Humidity Winds Wind Gusts Pressure Precip Precip Rate Daily Precip Total
12:00 AM 55.6°F13.1°C 51.8°F11.0°C 87% 3.1 mph W5.0 kmh W 4.5 mph7.2 kmh 30.15 in1021.0 mb 0.00 in0.0 mm 0.00 in0.0 mm 0.00 in0.0 mm
12:15 AM 55.6°F13.1°C 51.5°F10.8°C 86% 2.7 mph NNE4.3 kmh NNE 4.5 mph7.2 kmh 30.15 in1021.0 mb 0.00 in0.0 mm 0.00 in0.0 mm 0.00 in0.0 mm
12:30 AM 55.6°F13.1°C 51.5°F10.8°C 86% 3.2 mph N5.1 kmh N 3.8 mph6.1 kmh 30.15 in1021.0 mb 0.00 in0.0 mm 0.00 in0.0 mm 0.00 in0.0 mm
12:45 AM 55.6°F13.1°C 51.5°F10.8°C 86% 2.8 mph WSW4.5 kmh WSW 5.4 mph8.7 kmh 30.14 in1020.7 mb 0.00 in0.0 mm 0.00 in0.0 mm 0.00 in0.0 mm
01:00 AM 55.8°F13.2°C 51.6°F10.9°C 86% 3.5 mph SE5.6 kmh SE 6.0 mph9.7 kmh 30.14 in1020.7 mb 0.00 in0.0 mm 0.00 in0.0 mm 0.00 in0.0 mm
01:01 AM 55.8°F13.2°C 51.6°F10.9°C 86% 3.3 mph SSE5.3 kmh SSE 6.0 mph9.7 kmh 30.14 in1020.7 mb 0.00 in0.0 mm 0.00 in0.0 mm 0.00 in0.0 mm
01:15 AM 55.4°F13.0°C 51.3°F10.7°C 86% 3.1 mph NNW5.0 kmh NNW 4.5 mph7.2 kmh 30.14 in1020.7 mb 0.00 in0.0 mm 0.00 in0.0 mm 0.00 in0.0 mm
01:16 AM 55.4°F13.0°C 51.3°F10.7°C 86% 3.1 mph NNW5.0 kmh NNW 4.5 mph7.2 kmh 30.14 in1020.7 mb 0.00 in0.0 mm 0.00 in0.0 mm 0.00 in0.0 mm
01:45 AM 55.8°F13.2°C 51.6°F10.9°C 86% 2.7 mph N4.3 kmh N 3.8 mph6.1 kmh 30.13 in1020.3 mb 0.00 in0.0 mm 0.00 in0.0 mm 0.00 in0.0 mm
02:00 AM 55.8°F13.2°C 51.6°F10.9°C 86% 3.1 mph SSW5.0 kmh SSW 3.8 mph6.1 kmh 30.13 in1020.3 mb 0.00 in0.0 mm 0.00 in0.0 mm 0.00 in0.0 mm
02:01 AM 55.8°F13.2°C 51.6°F10.9°C 86% 3.0 mph SSW4.8 kmh SSW 3.8 mph6.1 kmh 30.13 in1020.3 mb 0.00 in0.0 mm 0.00 in0.0 mm 0.00 in0.0 mm
02:15 AM 55.8°F13.2°C 51.3°F10.7°C 85% 3.5 mph WSW5.6 kmh WSW 8.3 mph13.4 kmh 30.11 in1019.6 mb 0.00 in0.0 mm 0.00 in0.0 mm 0.00 in0.0 mm
02:30 AM 55.4°F13.0°C 51.3°F10.7°C 86% 3.9 mph NW6.3 kmh NW 6.0 mph9.7 kmh 30.11 in1019.6 mb 0.00 in0.0 mm 0.00 in0.0 mm 0.00 in0.0 mm
02:45 AM 55.2°F12.9°C 51.4°F10.8°C 87% 4.0 mph N6.4 kmh N 6.0 mph9.7 kmh 30.11 in1019.6 mb 0.00 in0.0 mm 0.00 in0.0 mm 0.00 in0.0 mm
02:46 AM 55.2°F12.9°C 51.4°F10.8°C 87% 4.2 mph N6.8 kmh N 6.0 mph9.7 kmh 30.11 in1019.6 mb 0.00 in0.0 mm 0.00 in0.0 mm 0.00 in0.0 mm
02:59 AM 55.4°F13.0°C 51.6°F10.9°C 87% 3.3 mph W5.3 kmh W 6.0 mph9.7 kmh 30.11 in1019.6 mb 0.00 in0.0 mm 0.00 in0.0 mm 0.00 in0.0 mm
03:00 AM 55.4°F13.0°C 51.6°F10.9°C 87% 3.3 mph W5.3 kmh W 6.0 mph9.7 kmh 30.11 in1019.6 mb 0.00 in0.0 mm 0.00 in0.0 mm 0.00 in0.0 mm
03:15 AM 55.4°F13.0°C 51.6°F10.9°C 87% 3.2 mph SSE5.1 kmh SSE 9.2 mph14.8 kmh 30.11 in1019.6 mb 0.00 in0.0 mm 0.00 in0.0 mm 0.00 in0.0 mm
03:30 AM 55.4°F13.0°C 51.3°F10.7°C 86% 3.9 mph WSW6.3 kmh WSW 5.4 mph8.7 kmh 30.10 in1019.3 mb 0.00 in0.0 mm 0.00 in0.0 mm 0.00 in0.0 mm
03:45 AM 54.9°F12.7°C 50.8°F10.4°C 86% 3.2 mph ESE5.1 kmh ESE 7.6 mph12.2 kmh 30.10 in1019.3 mb 0.00 in0.0 mm 0.00 in0.0 mm 0.00 in0.0 mm
04:00 AM 54.5°F12.5°C 50.7°F10.4°C 87% 2.4 mph NE3.9 kmh NE 3.1 mph5.0 kmh 30.09 in1019.0 mb 0.00 in0.0 mm 0.00 in0.0 mm 0.00 in0.0 mm
04:15 AM 54.5°F12.5°C 50.7°F10.4°C 87% 1.9 mph S3.1 kmh S 2.2 mph3.5 kmh 30.10 in1019.3 mb 0.00 in0.0 mm 0.00 in0.0 mm 0.00 in0.0 mm
04:30 AM 54.3°F12.4°C 50.8°F10.4°C 88% 1.7 mph NNW2.7 kmh NNW 3.1 mph5.0 kmh 30.09 in1019.0 mb 0.00 in0.0 mm 0.00 in0.0 mm 0.00 in0.0 mm
04:45 AM 53.6°F12.0°C 50.1°F10.1°C 88% 2.1 mph NW3.4 kmh NW 5.4 mph8.7 kmh 30.09 in1019.0 mb 0.00 in0.0 mm 0.00 in0.0 mm 0.00 in0.0 mm
05:00 AM 53.8°F12.1°C 50.3°F10.2°C 88% 2.4 mph N3.9 kmh N 5.4 mph8.7 kmh 30.09 in1019.0 mb 0.00 in0.0 mm 0.00 in0.0 mm 0.00 in0.0 mm
05:01 AM 53.8°F12.1°C 50.3°F10.2°C 88% 2.6 mph N4.2 kmh N 5.4 mph8.7 kmh 30.08 in1018.6 mb 0.00 in0.0 mm 0.00 in0.0 mm 0.00 in0.0 mm
05:15 AM 54.7°F12.6°C 51.5°F10.8°C 89% 2.9 mph N4.7 kmh N 9.2 mph14.8 kmh 30.08 in1018.6 mb 0.00 in0.0 mm 0.00 in0.0 mm 0.00 in0.0 mm
05:29 AM 55.0°F12.8°C 51.6°F10.9°C 88% 3.4 mph SW5.5 kmh SW 6.0 mph9.7 kmh 30.08 in1018.6 mb 0.00 in0.0 mm 0.00 in0.0 mm 0.00 in0.0 mm
05:30 AM 55.0°F12.8°C 51.6°F10.9°C 88% 3.3 mph SW5.3 kmh SW 6.0 mph9.7 kmh 30.08 in1018.6 mb 0.00 in0.0 mm 0.00 in0.0 mm 0.00 in0.0 mm
05:31 AM 55.0°F12.8°C 51.6°F10.9°C 88% 3.5 mph SW5.6 kmh SW 6.0 mph9.7 kmh 30.07 in1018.3 mb 0.00 in0.0 mm 0.00 in0.0 mm 0.00 in0.0 mm
05:45 AM 55.0°F12.8°C 51.6°F10.9°C 88% 3.4 mph W5.5 kmh W 5.4 mph8.7 kmh 30.07 in1018.3 mb 0.00 in0.0 mm 0.00 in0.0 mm 0.00 in0.0 mm
05:46 AM 55.0°F12.8°C 51.6°F10.9°C 88% 3.5 mph WSW5.6 kmh WSW 5.4 mph8.7 kmh 30.07 in1018.3 mb 0.00 in0.0 mm 0.00 in0.0 mm 0.00 in0.0 mm
06:00 AM 55.2°F12.9°C 51.4°F10.8°C 87% 2.2 mph NE3.5 kmh NE 4.5 mph7.2 kmh 30.07 in1018.3 mb 0.00 in0.0 mm 0.00 in0.0 mm 0.00 in0.0 mm
06:15 AM 55.0°F12.8°C 50.9°F10.5°C 86% 3.2 mph SW5.1 kmh SW 4.5 mph7.2 kmh 30.06 in1017.9 mb 0.00 in0.0 mm 0.00 in0.0 mm 0.00 in0.0 mm
06:30 AM 55.0°F12.8°C 50.9°F10.5°C 86% 4.4 mph SW7.1 kmh SW 8.3 mph13.4 kmh 30.06 in1017.9 mb 0.00 in0.0 mm 0.00 in0.0 mm 0.00 in0.0 mm
06:45 AM 55.2°F12.9°C 50.5°F10.3°C 84% 3.4 mph SSE5.5 kmh SSE 5.4 mph8.7 kmh 30.06 in1017.9 mb 0.00 in0.0 mm 0.00 in0.0 mm 0.00 in0.0 mm
07:00 AM 55.2°F12.9°C 50.2°F10.1°C 83% 2.9 mph N4.7 kmh N 4.5 mph7.2 kmh 30.06 in1017.9 mb 0.00 in0.0 mm 0.00 in0.0 mm 0.00 in0.0 mm
07:15 AM 55.0°F12.8°C 49.7°F9.8°C 82% 2.8 mph SW4.5 kmh SW 6.0 mph9.7 kmh 30.06 in1017.9 mb 0.00 in0.0 mm 0.00 in0.0 mm 0.00 in0.0 mm
07:45 AM 57.6°F14.2°C 51.8°F11.0°C 81% 2.5 mph WSW4.0 kmh WSW 4.5 mph7.2 kmh 30.06 in1017.9 mb 0.00 in0.0 mm 0.00 in0.0 mm 0.00 in0.0 mm
08:00 AM 57.7°F14.3°C 50.6°F10.3°C 77% 2.3 mph S3.7 kmh S 3.1 mph5.0 kmh 30.06 in1017.9 mb 0.00 in0.0 mm 0.00 in0.0 mm 0.00 in0.0 mm
08:15 AM 57.0°F13.9°C 50.2°F10.1°C 78% 3.3 mph SW5.3 kmh SW 9.2 mph14.8 kmh 30.05 in1017.6 mb 0.00 in0.0 mm 0.00 in0.0 mm 0.00 in0.0 mm
08:30 AM 56.8°F13.8°C 50.4°F10.2°C 79% 2.6 mph NW4.2 kmh NW 5.4 mph8.7 kmh 30.07 in1018.3 mb 0.00 in0.0 mm 0.00 in0.0 mm 0.00 in0.0 mm
08:45 AM 56.8°F13.8°C 50.4°F10.2°C 79% 1.6 mph WNW2.6 kmh WNW 2.2 mph3.5 kmh 30.05 in1017.6 mb 0.00 in0.0 mm 0.00 in0.0 mm 0.00 in0.0 mm
09:00 AM 57.0°F13.9°C 51.3°F10.7°C 81% 2.0 mph NW3.2 kmh NW 3.8 mph6.1 kmh 30.05 in1017.6 mb 0.00 in0.0 mm 0.00 in0.0 mm 0.00 in0.0 mm
09:15 AM 56.7°F13.7°C 51.2°F10.7°C 82% 3.4 mph ESE5.5 kmh ESE 6.0 mph9.7 kmh 30.04 in1017.3 mb 0.00 in0.0 mm 0.00 in0.0 mm 0.00 in0.0 mm
09:30 AM 56.3°F13.5°C 51.5°F10.8°C 84% 2.7 mph N4.3 kmh N 4.5 mph7.2 kmh 30.04 in1017.3 mb 0.00 in0.0 mm 0.00 in0.0 mm 0.00 in0.0 mm
09:45 AM 56.1°F13.4°C 52.0°F11.1°C 86% 3.6 mph SW5.8 kmh SW 3.8 mph6.1 kmh 30.04 in1017.3 mb 0.01 in0.3 mm 0.04 in1.0 mm 0.01 in0.3 mm
10:15 AM 55.6°F13.1°C 52.4°F11.3°C 89% 1.9 mph SE3.1 kmh SE 3.1 mph5.0 kmh 30.03 in1016.9 mb 0.01 in0.3 mm 0.00 in0.0 mm 0.01 in0.3 mm
10:30 AM 56.1°F13.4°C 53.2°F11.8°C 90% 2.7 mph N4.3 kmh N 4.5 mph7.2 kmh 30.03 in1016.9 mb 0.02 in0.5 mm 0.04 in1.0 mm 0.02 in0.5 mm
10:45 AM 57.9°F14.4°C 54.7°F12.6°C 89% 2.9 mph NNE4.7 kmh NNE 6.0 mph9.7 kmh 30.02 in1016.6 mb 0.01 in0.3 mm 0.00 in0.0 mm 0.02 in0.5 mm
11:00 AM 58.5°F14.7°C 54.6°F12.6°C 87% 3.2 mph NE5.1 kmh NE 4.5 mph7.2 kmh 30.02 in1016.6 mb 0.01 in0.3 mm 0.00 in0.0 mm 0.02 in0.5 mm
11:15 AM 58.8°F14.9°C 53.7°F12.1°C 83% 4.2 mph NE6.8 kmh NE 6.0 mph9.7 kmh 30.01 in1016.3 mb 0.01 in0.3 mm 0.00 in0.0 mm 0.02 in0.5 mm
11:30 AM 58.5°F14.7°C 52.7°F11.5°C 81% 4.0 mph S6.4 kmh S 9.2 mph14.8 kmh 30.01 in1016.3 mb 0.00 in0.0 mm 0.00 in0.0 mm 0.02 in0.5 mm
11:45 AM 59.5°F15.3°C 52.3°F11.3°C 77% 5.5 mph SE8.9 kmh SE 6.9 mph11.1 kmh 30.00 in1015.9 mb 0.00 in0.0 mm 0.00 in0.0 mm 0.02 in0.5 mm
12:00 PM 60.4°F15.8°C 52.5°F11.4°C 75% 2.2 mph W3.5 kmh W 3.1 mph5.0 kmh 30.00 in1015.9 mb 0.00 in0.0 mm 0.00 in0.0 mm 0.02 in0.5 mm
12:15 PM 59.5°F15.3°C 52.0°F11.1°C 76% 4.2 mph NNE6.8 kmh NNE 8.3 mph13.4 kmh 29.99 in1015.6 mb 0.00 in0.0 mm 0.00 in0.0 mm 0.02 in0.5 mm
12:30 PM 60.4°F15.8°C 51.8°F11.0°C 73% 5.4 mph SSE8.7 kmh SSE 9.8 mph15.8 kmh 29.98 in1015.2 mb 0.00 in0.0 mm 0.00 in0.0 mm 0.02 in0.5 mm
12:45 PM 61.7°F16.5°C 51.4°F10.8°C 69% 4.4 mph ESE7.1 kmh ESE 10.7 mph17.2 kmh 29.98 in1015.2 mb 0.00 in0.0 mm 0.00 in0.0 mm 0.02 in0.5 mm
01:00 PM 62.2°F16.8°C 51.6°F10.9°C 68% 4.1 mph WNW6.6 kmh WNW 13.0 mph20.9 kmh 29.97 in1014.9 mb 0.00 in0.0 mm 0.00 in0.0 mm 0.02 in0.5 mm
01:15 PM 61.5°F16.4°C 50.9°F10.5°C 68% 4.7 mph WSW7.6 kmh WSW 9.2 mph14.8 kmh 29.97 in1014.9 mb 0.00 in0.0 mm 0.00 in0.0 mm 0.02 in0.5 mm
01:16 PM 61.5°F16.4°C 50.9°F10.5°C 68% 4.2 mph NW6.8 kmh NW 6.9 mph11.1 kmh 29.97 in1014.9 mb 0.00 in0.0 mm 0.00 in0.0 mm 0.02 in0.5 mm
01:30 PM 61.2°F16.2°C 50.9°F10.5°C 69% 3.6 mph E5.8 kmh E 9.2 mph14.8 kmh 29.96 in1014.6 mb 0.00 in0.0 mm 0.00 in0.0 mm 0.02 in0.5 mm
01:31 PM 61.2°F16.2°C 51.3°F10.7°C 70% 3.0 mph NNE4.8 kmh NNE 5.4 mph8.7 kmh 29.97 in1014.9 mb 0.00 in0.0 mm 0.00 in0.0 mm 0.02 in0.5 mm
01:45 PM 61.0°F16.1°C 50.0°F10.0°C 67% 6.5 mph S10.5 kmh S 9.8 mph15.8 kmh 29.96 in1014.6 mb 0.00 in0.0 mm 0.00 in0.0 mm 0.02 in0.5 mm
02:00 PM 60.6°F15.9°C 50.4°F10.2°C 69% 5.3 mph E8.5 kmh E 10.7 mph17.2 kmh 29.95 in1014.2 mb 0.00 in0.0 mm 0.00 in0.0 mm 0.02 in0.5 mm
02:15 PM 60.8°F16.0°C 50.2°F10.1°C 68% 4.1 mph WSW6.6 kmh WSW 7.6 mph12.2 kmh 29.95 in1014.2 mb 0.00 in0.0 mm 0.00 in0.0 mm 0.02 in0.5 mm
02:30 PM 60.8°F16.0°C 50.6°F10.3°C 69% 4.4 mph ENE7.1 kmh ENE 8.3 mph13.4 kmh 29.95 in1014.2 mb 0.00 in0.0 mm 0.00 in0.0 mm 0.02 in0.5 mm
02:45 PM 61.0°F16.1°C 50.8°F10.4°C 69% 3.9 mph S6.3 kmh S 5.4 mph8.7 kmh 29.94 in1013.9 mb 0.00 in0.0 mm 0.00 in0.0 mm 0.02 in0.5 mm
03:00 PM 60.3°F15.7°C 51.2°F10.7°C 72% 4.5 mph NNW7.2 kmh NNW 8.3 mph13.4 kmh 29.94 in1013.9 mb 0.00 in0.0 mm 0.00 in0.0 mm 0.02 in0.5 mm
03:15 PM 59.9°F15.5°C 50.9°F10.5°C 72% 2.5 mph NNW4.0 kmh NNW 4.5 mph7.2 kmh 29.94 in1013.9 mb 0.00 in0.0 mm 0.00 in0.0 mm 0.02 in0.5 mm
03:30 PM 59.7°F15.4°C 50.7°F10.4°C 72% 4.9 mph SSW7.9 kmh SSW 10.7 mph17.2 kmh 29.94 in1013.9 mb 0.00 in0.0 mm 0.00 in0.0 mm 0.02 in0.5 mm
04:00 PM 58.5°F14.7°C 52.0°F11.1°C 79% 3.9 mph SE6.3 kmh SE 6.9 mph11.1 kmh 29.94 in1013.9 mb 0.00 in0.0 mm 0.00 in0.0 mm 0.02 in0.5 mm
04:15 PM 57.9°F14.4°C 51.5°F10.8°C 79% 3.1 mph NE5.0 kmh NE 5.4 mph8.7 kmh 29.94 in1013.9 mb 0.00 in0.0 mm 0.00 in0.0 mm 0.02 in0.5 mm
04:30 PM 56.5°F13.6°C 51.4°F10.8°C 83% 3.7 mph SSW6.0 kmh SSW 6.9 mph11.1 kmh 29.95 in1014.2 mb 0.00 in0.0 mm 0.00 in0.0 mm 0.02 in0.5 mm
04:45 PM 55.9°F13.3°C 51.8°F11.0°C 86% 2.3 mph NW3.7 kmh NW 3.8 mph6.1 kmh 29.95 in1014.2 mb 0.01 in0.3 mm 0.04 in1.0 mm 0.04 in1.0 mm
05:00 PM 55.4°F13.0°C 51.9°F11.1°C 88% 4.2 mph SW6.8 kmh SW 7.6 mph12.2 kmh 29.96 in1014.6 mb 0.01 in0.3 mm 0.00 in0.0 mm 0.04 in1.0 mm
05:15 PM 55.2°F12.9°C 51.7°F10.9°C 88% 4.8 mph WSW7.7 kmh WSW 9.2 mph14.8 kmh 29.96 in1014.6 mb 0.01 in0.3 mm 0.00 in0.0 mm 0.04 in1.0 mm
05:30 PM 55.0°F12.8°C 51.6°F10.9°C 88% 2.4 mph S3.9 kmh S 4.5 mph7.2 kmh 29.96 in1014.6 mb 0.01 in0.3 mm 0.00 in0.0 mm 0.04 in1.0 mm
05:45 PM 55.0°F12.8°C 51.6°F10.9°C 88% 1.5 mph SSW2.4 kmh SSW 3.1 mph5.0 kmh 29.96 in1014.6 mb 0.00 in0.0 mm 0.00 in0.0 mm 0.04 in1.0 mm
06:00 PM 54.0°F12.2°C 50.2°F10.1°C 87% 2.7 mph NW4.3 kmh NW 3.8 mph6.1 kmh 29.99 in1015.6 mb 0.00 in0.0 mm 0.00 in0.0 mm 0.04 in1.0 mm
06:45 PM 51.4°F10.8°C 47.4°F8.6°C 86% 1.3 mph NW2.1 kmh NW 2.2 mph3.5 kmh 29.99 in1015.6 mb 0.00 in0.0 mm 0.00 in0.0 mm 0.04 in1.0 mm
07:00 PM 51.3°F10.7°C 47.2°F8.4°C 86% 2.3 mph SSW3.7 kmh SSW 4.5 mph7.2 kmh 29.99 in1015.6 mb 0.00 in0.0 mm 0.00 in0.0 mm 0.04 in1.0 mm
07:15 PM 51.3°F10.7°C 46.9°F8.3°C 85% 1.7 mph WNW2.7 kmh WNW 3.1 mph5.0 kmh 30.00 in1015.9 mb 0.00 in0.0 mm 0.00 in0.0 mm 0.04 in1.0 mm
07:30 PM 50.4°F10.2°C 45.7°F7.6°C 84% 1.5 mph NNW2.4 kmh NNW 2.2 mph3.5 kmh 30.02 in1016.6 mb 0.00 in0.0 mm 0.00 in0.0 mm 0.04 in1.0 mm
07:45 PM 50.2°F10.1°C 45.2°F7.3°C 83% 2.0 mph WSW3.2 kmh WSW 3.1 mph5.0 kmh 30.01 in1016.3 mb 0.00 in0.0 mm 0.00 in0.0 mm 0.04 in1.0 mm
08:00 PM 50.0°F10.0°C 45.4°F7.4°C 84% 2.5 mph NW4.0 kmh NW 6.9 mph11.1 kmh 30.02 in1016.6 mb 0.00 in0.0 mm 0.00 in0.0 mm 0.04 in1.0 mm
08:15 PM 49.6°F9.8°C 45.3°F7.4°C 85% 1.7 mph N2.7 kmh N 4.5 mph7.2 kmh 30.01 in1016.3 mb 0.00 in0.0 mm 0.00 in0.0 mm 0.04 in1.0 mm
08:30 PM 49.3°F9.6°C 44.7°F7.1°C 84% 1.1 mph W1.8 kmh W 3.1 mph5.0 kmh 30.02 in1016.6 mb 0.00 in0.0 mm 0.00 in0.0 mm 0.04 in1.0 mm
08:45 PM 48.9°F9.4°C 44.3°F6.8°C 84% 1.3 mph NW2.1 kmh NW 3.8 mph6.1 kmh 30.02 in1016.6 mb 0.00 in0.0 mm 0.00 in0.0 mm 0.04 in1.0 mm
09:00 PM 48.6°F9.2°C 44.0°F6.7°C 84% 1.3 mph NNW2.1 kmh NNW 2.2 mph3.5 kmh 30.03 in1016.9 mb 0.00 in0.0 mm 0.00 in0.0 mm 0.04 in1.0 mm
09:15 PM 47.8°F8.8°C 43.6°F6.4°C 85% 0.8 mph NW1.3 kmh NW 2.2 mph3.5 kmh 30.03 in1016.9 mb 0.00 in0.0 mm 0.00 in0.0 mm 0.04 in1.0 mm
09:30 PM 47.1°F8.4°C 42.8°F6.0°C 85% 0.5 mph NW0.8 kmh NW 0.7 mph1.1 kmh 30.03 in1016.9 mb 0.00 in0.0 mm 0.00 in0.0 mm 0.04 in1.0 mm
09:45 PM 46.6°F8.1°C 42.6°F5.9°C 86% 0.4 mph W0.6 kmh W 1.6 mph2.6 kmh 30.03 in1016.9 mb 0.00 in0.0 mm 0.00 in0.0 mm 0.04 in1.0 mm
10:00 PM 46.4°F8.0°C 42.4°F5.8°C 86% 0.5 mph NW0.8 kmh NW 0.7 mph1.1 kmh 30.03 in1016.9 mb 0.00 in0.0 mm 0.00 in0.0 mm 0.04 in1.0 mm
10:15 PM 46.0°F7.8°C 42.7°F5.9°C 88% 0.8 mph WNW1.3 kmh WNW 1.6 mph2.6 kmh 30.03 in1016.9 mb 0.00 in0.0 mm 0.00 in0.0 mm 0.04 in1.0 mm
10:30 PM 45.9°F7.7°C 42.5°F5.8°C 88% 0.5 mph NW0.8 kmh NW 1.6 mph2.6 kmh 30.03 in1016.9 mb 0.00 in0.0 mm 0.00 in0.0 mm 0.04 in1.0 mm
10:45 PM 45.7°F7.6°C 42.3°F5.7°C 88% 0.4 mph NE0.6 kmh NE 1.6 mph2.6 kmh 30.03 in1016.9 mb 0.00 in0.0 mm 0.00 in0.0 mm 0.04 in1.0 mm
11:00 PM 45.7°F7.6°C 42.6°F5.9°C 89% 1.5 mph WNW2.4 kmh WNW 3.1 mph5.0 kmh 30.04 in1017.3 mb 0.00 in0.0 mm 0.00 in0.0 mm 0.03 in0.8 mm
11:15 PM 45.5°F7.5°C 42.5°F5.8°C 89% 0.6 mph NW1.0 kmh NW 1.6 mph2.6 kmh 30.04 in1017.3 mb 0.00 in0.0 mm 0.00 in0.0 mm 0.03 in0.8 mm
11:29 PM 45.5°F7.5°C 42.5°F5.8°C 89% 0.4 mph NW0.6 kmh NW 1.6 mph2.6 kmh 30.04 in1017.3 mb 0.00 in0.0 mm 0.00 in0.0 mm 0.03 in0.8 mm
11:30 PM 45.5°F7.5°C 42.5°F5.8°C 89% 0.4 mph NW0.6 kmh NW 1.6 mph2.6 kmh 30.04 in1017.3 mb 0.00 in0.0 mm 0.00 in0.0 mm 0.03 in0.8 mm
11:31 PM 45.5°F7.5°C 42.5°F5.8°C 89% 0.3 mph WNW0.5 kmh WNW 1.6 mph2.6 kmh 30.03 in1016.9 mb 0.00 in0.0 mm 0.00 in0.0 mm 0.03 in0.8 mm